createdAt,value
2022-12-16T00:02:13.065Z,26.03
2022-12-16T00:06:23.131Z,30.97
2022-12-16T00:10:33.321Z,26.00
2022-12-16T00:14:42.047Z,24.20
2022-12-16T00:18:53.849Z,24.33
2022-12-16T00:23:23.390Z,22.73
2022-12-16T00:27:31.978Z,17.43
2022-12-16T00:31:40.728Z,26.17
2022-12-16T00:35:49.601Z,32.80
2022-12-16T00:39:59.930Z,22.13
2022-12-16T00:44:08.465Z,29.50
2022-12-16T00:48:36.439Z,21.13
2022-12-16T00:52:45.451Z,16.20
2022-12-16T00:56:54.210Z,13.27
2022-12-16T01:01:05.752Z,26.37
2022-12-16T01:05:18.809Z,20.13
2022-12-16T01:09:27.262Z,18.63
2022-12-16T01:13:37.018Z,50.70
2022-12-16T01:17:46.365Z,28.33
2022-12-16T01:21:54.991Z,16.73
2022-12-16T01:26:03.531Z,18.67
2022-12-16T01:30:12.815Z,24.27
2022-12-16T01:34:21.490Z,31.63
2022-12-16T01:38:30.216Z,20.27
2022-12-16T01:42:38.781Z,18.05
2022-12-16T01:46:56.349Z,25.53
2022-12-16T01:51:10.780Z,23.17
2022-12-16T01:55:22.403Z,24.60
2022-12-16T01:59:33.642Z,21.60
2022-12-16T02:03:44.040Z,15.70
2022-12-16T02:08:04.517Z,23.20
2022-12-16T02:12:33.911Z,27.70
2022-12-16T02:16:55.050Z,19.37
2022-12-16T02:21:33.479Z,28.20
2022-12-16T02:26:09.096Z,16.03
2022-12-16T02:30:38.594Z,18.47
2022-12-16T02:35:12.802Z,20.00
2022-12-16T02:39:30.811Z,22.70
2022-12-16T02:44:00.155Z,24.67
2022-12-16T02:48:08.783Z,32.03
2022-12-16T02:52:20.073Z,17.07
2022-12-16T02:57:02.794Z,14.43
2022-12-16T03:01:20.133Z,30.77
2022-12-16T03:05:48.384Z,21.57
2022-12-16T03:09:58.816Z,38.07
2022-12-16T03:14:28.311Z,21.03
2022-12-16T03:18:39.703Z,24.10
2022-12-16T03:22:51.714Z,25.70
2022-12-16T03:27:20.968Z,23.73
2022-12-16T03:31:41.415Z,30.17
2022-12-16T03:35:53.226Z,22.00
2022-12-16T03:40:21.996Z,24.70
2022-12-16T03:44:31.180Z,29.67
2022-12-16T03:48:42.822Z,55.40
2022-12-16T03:52:51.504Z,23.50
2022-12-16T03:57:20.818Z,23.10
2022-12-16T04:01:29.541Z,30.17
2022-12-16T04:05:38.281Z,23.27
2022-12-16T04:09:47.090Z,40.47
2022-12-16T04:14:13.560Z,22.73
2022-12-16T04:18:40.210Z,31.07
2022-12-16T04:23:06.964Z,25.30
2022-12-16T04:27:24.775Z,26.50
2022-12-16T04:31:33.386Z,25.13
2022-12-16T04:36:00.503Z,38.73
2022-12-16T04:40:27.663Z,32.77
2022-12-16T04:44:54.314Z,19.47
2022-12-16T04:49:40.224Z,24.07
2022-12-16T04:54:06.866Z,20.53
2022-12-16T04:58:33.521Z,20.57
2022-12-16T05:02:43.755Z,30.10
2022-12-16T05:07:37.784Z,27.80
2022-12-16T05:11:59.034Z,19.70
2022-12-16T05:16:25.902Z,31.33
2022-12-16T05:20:52.082Z,18.70
2022-12-16T05:25:38.308Z,29.63
2022-12-16T05:30:05.269Z,22.93
2022-12-16T05:34:32.225Z,22.23
2022-12-16T05:38:58.571Z,19.23
2022-12-16T05:43:24.912Z,20.10
2022-12-16T05:47:51.153Z,29.70
2022-12-16T05:52:17.761Z,32.77
2022-12-16T05:57:05.047Z,21.23
2022-12-16T06:01:31.903Z,25.50
2022-12-16T06:05:58.649Z,19.57
2022-12-16T06:10:25.403Z,36.13
2022-12-16T06:14:52.181Z,24.13
2022-12-16T06:19:19.964Z,21.93
2022-12-16T06:23:46.651Z,22.70
2022-12-16T06:28:12.928Z,29.27
2022-12-16T06:37:11.760Z,22.80
2022-12-16T06:41:57.731Z,24.87
2022-12-16T06:46:24.062Z,30.40
2022-12-16T06:50:55.601Z,18.83
2022-12-16T06:55:18.871Z,24.17
2022-12-16T06:59:45.803Z,18.80
2022-12-16T07:04:12.546Z,27.40
2022-12-16T07:08:39.107Z,28.20
2022-12-16T07:12:55.413Z,33.33
2022-12-16T07:17:22.271Z,25.10
2022-12-16T07:21:48.819Z,26.90
2022-12-16T07:26:34.334Z,26.27
2022-12-16T07:31:02.503Z,22.57
2022-12-16T07:35:29.354Z,28.93
2022-12-16T07:39:56.007Z,23.83
2022-12-16T07:44:25.832Z,33.63
2022-12-16T07:48:52.709Z,45.07
2022-12-16T07:53:20.055Z,36.00
2022-12-16T07:57:46.912Z,25.13
2022-12-16T08:02:13.199Z,27.00
2022-12-16T08:06:59.300Z,24.57
2022-12-16T08:11:25.912Z,35.83
2022-12-16T08:15:52.666Z,21.97
2022-12-16T08:20:19.521Z,26.40
2022-12-16T08:24:51.569Z,25.60
2022-12-16T08:29:49.440Z,38.37
2022-12-16T08:34:02.314Z,29.43
2022-12-16T08:38:30.034Z,31.42
2022-12-16T08:52:01.202Z,31.60
2022-12-16T08:56:27.642Z,35.13
2022-12-16T09:05:26.685Z,29.30
2022-12-16T09:09:53.104Z,37.33
2022-12-16T09:18:51.145Z,38.60
2022-12-16T09:23:22.311Z,50.03
2022-12-16T09:27:49.260Z,26.87
2022-12-16T09:32:15.832Z,26.77
2022-12-16T09:36:42.380Z,41.13
2022-12-16T09:41:09.214Z,41.23
2022-12-16T09:45:39.039Z,33.77
2022-12-16T09:50:11.203Z,35.07
2022-12-16T09:59:22.854Z,31.93
2022-12-16T10:03:58.477Z,33.17
2022-12-16T10:08:36.474Z,31.23
2022-12-16T10:13:11.406Z,37.80
2022-12-16T10:17:45.154Z,32.30
2022-12-16T10:22:20.353Z,27.70
2022-12-16T10:27:07.439Z,34.33
2022-12-16T10:31:36.679Z,39.50
2022-12-16T10:36:23.102Z,40.13
2022-12-16T10:40:52.780Z,32.97
2022-12-16T10:50:10.253Z,35.20
2022-12-16T10:54:42.579Z,38.67
2022-12-16T10:59:15.535Z,48.50
2022-12-16T11:03:45.075Z,38.37
2022-12-16T11:08:12.672Z,44.73
2022-12-16T11:12:45.666Z,109.90
2022-12-16T11:17:32.920Z,42.17
2022-12-16T11:22:20.236Z,60.60
2022-12-16T11:26:42.376Z,31.57
2022-12-16T11:31:11.652Z,37.43
2022-12-16T11:36:05.179Z,34.40
2022-12-16T11:40:34.489Z,30.63
2022-12-16T11:45:07.345Z,44.80
2022-12-16T11:49:54.519Z,33.10
2022-12-16T11:54:40.221Z,40.30
2022-12-16T11:59:09.074Z,36.97
2022-12-16T12:03:43.437Z,32.27
2022-12-16T12:08:21.786Z,34.50
2022-12-16T12:12:52.890Z,40.13
2022-12-16T12:17:22.860Z,37.40
2022-12-16T12:22:01.498Z,32.93
2022-12-16T12:26:33.477Z,35.03
2022-12-16T12:31:03.118Z,38.57
2022-12-16T12:35:41.825Z,51.23
2022-12-16T12:40:03.763Z,39.83
2022-12-16T12:44:48.976Z,51.93
2022-12-16T12:49:31.677Z,73.87
2022-12-16T12:54:07.199Z,41.03
2022-12-16T12:58:53.754Z,35.47
2022-12-16T13:03:53.278Z,38.87
2022-12-16T13:08:53.110Z,37.70
2022-12-16T13:13:40.651Z,55.87
2022-12-16T13:18:22.554Z,34.00
2022-12-16T13:22:54.913Z,41.97
2022-12-16T13:27:22.138Z,57.87
2022-12-16T13:31:50.254Z,47.00
2022-12-16T13:36:18.546Z,43.90
2022-12-16T13:40:44.771Z,42.10
2022-12-16T13:45:13.677Z,58.50
2022-12-16T13:49:57.719Z,41.80
2022-12-16T13:54:25.947Z,31.93
2022-12-16T13:59:04.596Z,36.27
2022-12-16T14:03:34.460Z,44.70
2022-12-16T14:08:01.883Z,56.53
2022-12-16T14:12:38.910Z,41.60
2022-12-16T14:17:11.485Z,40.27
2022-12-16T14:26:46.640Z,41.87
2022-12-16T14:31:24.701Z,52.17
2022-12-16T14:35:51.233Z,43.13
2022-12-16T14:40:18.092Z,43.13
2022-12-16T14:44:46.749Z,34.77
2022-12-16T14:49:43.139Z,46.17
2022-12-16T14:54:09.567Z,52.90
2022-12-16T14:58:38.796Z,31.27
2022-12-16T15:03:08.483Z,40.40
2022-12-16T15:07:35.270Z,55.77
2022-12-16T15:12:03.015Z,43.33
2022-12-16T15:16:50.612Z,42.00
2022-12-16T15:21:17.203Z,38.13
2022-12-16T15:25:45.329Z,42.90
2022-12-16T15:30:12.005Z,57.10
2022-12-16T15:34:47.951Z,43.73
2022-12-16T15:39:14.658Z,39.63
2022-12-16T15:43:46.870Z,37.77
2022-12-16T15:48:13.269Z,33.60
2022-12-16T15:52:54.516Z,49.00
2022-12-16T15:57:21.477Z,41.90
2022-12-16T16:01:49.856Z,35.80
2022-12-16T16:06:43.451Z,40.33
2022-12-16T16:11:10.001Z,41.63
2022-12-16T16:15:55.789Z,36.53
2022-12-16T16:20:22.245Z,47.97
2022-12-16T16:24:51.479Z,45.50
2022-12-16T16:29:18.209Z,40.60
2022-12-16T16:33:56.794Z,36.20
2022-12-16T16:38:13.157Z,42.73
2022-12-16T16:42:38.200Z,51.53
2022-12-16T16:47:06.080Z,37.73
2022-12-16T16:51:32.898Z,53.67
2022-12-16T16:55:59.549Z,51.60
2022-12-16T17:00:47.283Z,59.60
2022-12-16T17:05:13.562Z,49.03
2022-12-16T17:09:39.555Z,55.47
2022-12-16T17:14:05.792Z,46.03
2022-12-16T17:18:31.790Z,39.20
2022-12-16T17:22:58.503Z,38.47
2022-12-16T17:27:37.032Z,35.23
2022-12-16T17:32:03.826Z,51.57
2022-12-16T17:36:32.238Z,46.23
2022-12-16T17:40:58.523Z,48.23
2022-12-16T17:45:25.658Z,53.33
2022-12-16T17:49:52.235Z,42.43
2022-12-16T17:54:24.929Z,52.73
2022-12-16T17:59:06.266Z,50.17
2022-12-16T18:03:33.640Z,47.47
2022-12-16T18:08:20.310Z,36.47
2022-12-16T18:13:06.624Z,60.60
2022-12-16T18:17:33.478Z,62.27
2022-12-16T18:26:32.036Z,43.13
2022-12-16T18:30:58.550Z,56.07
2022-12-16T18:35:25.719Z,46.33
2022-12-16T18:39:52.675Z,45.80
2022-12-16T18:44:19.900Z,47.00
2022-12-16T18:48:46.447Z,36.17
2022-12-16T18:53:13.009Z,51.10
2022-12-16T18:57:39.988Z,49.27
2022-12-16T19:02:06.703Z,42.97
2022-12-16T19:06:32.743Z,39.93
2022-12-16T19:10:59.234Z,42.73
2022-12-16T19:15:26.497Z,35.30
2022-12-16T19:19:52.841Z,38.30
2022-12-16T19:24:19.572Z,37.63
2022-12-16T19:28:46.246Z,65.30
2022-12-16T19:33:12.806Z,51.80
2022-12-16T19:37:39.449Z,52.77
2022-12-16T19:42:06.199Z,48.40
2022-12-16T19:46:32.900Z,46.27
2022-12-16T19:51:01.791Z,29.70
2022-12-16T19:55:28.785Z,34.47
2022-12-16T19:59:54.976Z,56.50
2022-12-16T20:04:43.098Z,41.10
2022-12-16T20:09:29.015Z,47.90
2022-12-16T20:13:56.079Z,61.27
2022-12-16T20:18:41.881Z,66.83
2022-12-16T20:23:27.882Z,64.43
2022-12-16T20:27:54.532Z,61.53
2022-12-16T20:32:22.776Z,60.93
2022-12-16T20:36:48.926Z,84.93
2022-12-16T20:41:19.305Z,54.23
2022-12-16T20:45:45.248Z,76.00
2022-12-16T20:50:11.636Z,54.03
2022-12-16T20:54:41.708Z,51.53
2022-12-16T20:59:08.460Z,74.57
2022-12-16T21:03:35.778Z,60.83
2022-12-16T21:08:02.682Z,69.90
2022-12-16T21:12:29.289Z,59.80
2022-12-16T21:16:55.909Z,64.57
2022-12-16T21:21:23.200Z,73.13
2022-12-16T21:25:50.212Z,62.40
2022-12-16T21:30:17.066Z,61.40
2022-12-16T21:34:43.412Z,54.57
2022-12-16T21:39:10.266Z,100.87
2022-12-16T21:43:37.004Z,81.10
2022-12-16T22:01:37.472Z,57.87
2022-12-16T22:06:04.003Z,63.13
2022-12-16T22:10:30.918Z,59.27
2022-12-16T22:14:57.875Z,75.73
2022-12-16T22:19:17.583Z,61.30
2022-12-16T22:23:48.514Z,62.40
2022-12-16T22:28:14.905Z,60.60
2022-12-16T22:32:41.307Z,50.53
2022-12-16T22:41:40.093Z,43.50
2022-12-16T22:46:26.153Z,58.90
2022-12-16T22:50:52.793Z,72.37
2022-12-16T22:55:21.494Z,45.27
2022-12-16T23:00:07.298Z,46.43
2022-12-16T23:04:33.890Z,35.37
2022-12-16T23:09:19.541Z,86.03
2022-12-16T23:13:47.113Z,59.23
2022-12-16T23:18:14.089Z,65.75
2022-12-16T23:22:40.932Z,56.73
2022-12-16T23:27:07.783Z,69.00
2022-12-16T23:31:46.660Z,47.90
2022-12-16T23:36:13.783Z,43.30
2022-12-16T23:40:40.537Z,37.27
2022-12-16T23:45:07.073Z,46.87
2022-12-16T23:49:52.886Z,39.63
2022-12-16T23:54:20.476Z,41.53
2022-12-16T23:58:47.022Z,34.70
